Time;durP1;ratioP1;P1;durP2;ratioP2;P2;SDS_P1;SDS_P2;PMS_P1;PMS_P2;Temp;Humidity;BMP_temperature;BMP_pressure;BME280_temperature;BME280_humidity;BME280_pressure;Samples;Min_cycle;Max_cycle;Signal;HPM_P1;HPM_P2
2022/11/19 00:00:40;;;;;;;5.82;4.35;;;5.00;99.90;;;;;;4959771;28;20524;-87
2022/11/19 00:03:05;;;;;;;5.22;3.95;;;4.90;99.90;;;;;;4955477;28;20397;-86
2022/11/19 00:05:31;;;;;;;5.68;4.30;;;4.90;99.90;;;;;;4950203;28;20058;-87
2022/11/19 00:07:56;;;;;;;5.90;4.40;;;4.90;99.90;;;;;;4967528;28;20747;-86
2022/11/19 00:10:22;;;;;;;7.70;5.05;;;4.80;99.90;;;;;;4950366;28;20474;-86
2022/11/19 00:12:53;;;;;;;5.25;4.35;;;4.70;99.90;;;;;;4931611;28;20426;-83
2022/11/19 00:15:19;;;;;;;8.77;4.53;;;4.80;99.90;;;;;;4968312;28;20035;-86
2022/11/19 00:17:44;;;;;;;5.00;3.90;;;4.70;99.90;;;;;;4969112;28;20184;-87
2022/11/19 00:20:10;;;;;;;5.88;4.43;;;4.70;99.90;;;;;;4954879;28;20035;-87
2022/11/19 00:22:35;;;;;;;5.57;4.28;;;4.80;99.90;;;;;;4930301;28;20043;-86
2022/11/19 00:25:01;;;;;;;6.93;4.50;;;4.80;99.90;;;;;;4950415;28;20034;-85
2022/11/19 00:27:26;;;;;;;5.00;4.47;;;4.80;99.90;;;;;;4949370;28;20063;-85
2022/11/19 00:29:52;;;;;;;6.88;5.32;;;4.80;99.90;;;;;;4953372;28;20035;-82
2022/11/19 00:32:17;;;;;;;7.95;4.90;;;4.80;99.90;;;;;;4943043;28;20359;-87
2022/11/19 00:34:45;;;;;;;8.57;6.13;;;4.70;99.90;;;;;;4953618;28;20486;-87
2022/11/19 00:37:11;;;;;;;7.20;5.65;;;4.70;99.90;;;;;;4939198;28;20041;-86
2022/11/19 00:39:36;;;;;;;7.70;5.45;;;4.70;99.90;;;;;;4946330;28;20031;-85
2022/11/19 00:42:02;;;;;;;7.70;5.60;;;4.70;99.90;;;;;;4967831;28;20117;-86
2022/11/19 00:44:27;;;;;;;8.30;5.97;;;4.70;99.90;;;;;;4951085;28;20886;-86
2022/11/19 00:46:53;;;;;;;7.38;5.80;;;4.60;99.90;;;;;;4949944;28;20035;-85
2022/11/19 00:49:18;;;;;;;9.60;6.90;;;4.60;99.90;;;;;;4938364;28;20037;-86
2022/11/19 00:51:44;;;;;;;8.25;5.95;;;4.60;99.90;;;;;;4947026;28;20031;-87
2022/11/19 00:54:09;;;;;;;9.20;6.53;;;4.60;99.90;;;;;;4951625;28;20063;-85
2022/11/19 00:56:35;;;;;;;7.65;5.90;;;4.50;99.90;;;;;;4948928;28;20031;-86
2022/11/19 00:59:01;;;;;;;10.05;6.18;;;4.40;99.90;;;;;;4976609;28;20034;-84
2022/11/19 01:01:26;;;;;;;11.85;6.22;;;4.40;99.90;;;;;;4931321;28;20035;-86
2022/11/19 01:03:52;;;;;;;8.90;5.60;;;4.40;99.90;;;;;;4976618;28;20031;-85
2022/11/19 01:06:19;;;;;;;10.63;7.38;;;4.40;99.90;;;;;;4935865;28;20026;-86
2022/11/19 01:08:46;;;;;;;9.05;6.32;;;4.30;99.90;;;;;;4953135;28;20039;-86
2022/11/19 01:11:15;;;;;;;8.00;5.68;;;4.30;99.90;;;;;;4963104;28;20490;-86
2022/11/19 01:13:41;;;;;;;10.82;6.93;;;4.20;99.90;;;;;;4959891;28;20028;-86
2022/11/19 01:16:11;;;;;;;11.98;7.28;;;4.20;99.90;;;;;;4952726;28;20506;-86
2022/11/19 01:18:37;;;;;;;11.60;7.30;;;4.20;99.90;;;;;;4961657;28;20118;-85
2022/11/19 01:21:03;;;;;;;15.65;7.35;;;4.20;99.90;;;;;;4979750;28;20089;-85
2022/11/19 01:23:29;;;;;;;11.68;7.55;;;4.20;99.90;;;;;;4968692;28;20023;-86
2022/11/19 01:25:55;;;;;;;10.32;7.18;;;4.20;99.90;;;;;;4951338;28;20050;-86
2022/11/19 01:28:26;;;;;;;12.88;7.60;;;4.20;99.90;;;;;;4950565;28;20034;-86
2022/11/19 01:30:52;;;;;;;11.50;8.52;;;4.10;99.90;;;;;;4960176;28;20049;-82
2022/11/19 01:33:18;;;;;;;11.40;7.78;;;4.10;99.90;;;;;;4950406;28;20027;-86
2022/11/19 01:35:52;;;;;;;10.95;7.72;;;4.10;99.90;;;;;;4967060;28;20062;-86
2022/11/19 01:38:18;;;;;;;12.15;8.35;;;4.00;99.90;;;;;;4953036;28;20042;-85
2022/11/19 01:40:44;;;;;;;10.73;7.80;;;4.00;99.90;;;;;;4945343;28;20106;-85
2022/11/19 01:43:11;;;;;;;13.40;9.38;;;4.00;99.90;;;;;;4962225;28;20110;-85
2022/11/19 01:45:44;;;;;;;13.10;8.63;;;3.90;99.90;;;;;;4946094;28;20031;-85
2022/11/19 01:48:18;;;;;;;13.27;8.25;;;3.90;99.90;;;;;;4934379;28;20046;-85
2022/11/19 01:50:49;;;;;;;14.50;8.43;;;3.90;99.90;;;;;;4962562;28;20031;-85
2022/11/19 01:53:18;;;;;;;14.45;9.75;;;4.00;99.90;;;;;;4976868;28;20478;-85
2022/11/19 01:55:43;;;;;;;15.55;8.82;;;3.90;99.90;;;;;;4949217;28;20042;-85
2022/11/19 01:58:09;;;;;;;16.45;9.93;;;3.90;99.90;;;;;;4974575;28;20039;-86
2022/11/19 02:00:34;;;;;;;17.30;10.65;;;3.90;99.90;;;;;;4929727;28;20117;-85
2022/11/19 02:03:00;;;;;;;19.45;10.52;;;3.70;99.90;;;;;;4940704;28;20031;-85
2022/11/19 02:05:26;;;;;;;16.95;11.32;;;3.70;99.90;;;;;;4944796;28;20517;-87
2022/11/19 02:07:53;;;;;;;17.17;11.80;;;3.70;99.90;;;;;;4927754;28;20090;-85
2022/11/19 02:10:19;;;;;;;17.45;11.48;;;3.70;99.90;;;;;;4930854;28;20053;-85
2022/11/19 02:13:25;;;;;;;21.48;11.43;;;3.60;99.90;;;;;;4958527;28;20043;-85
2022/11/19 02:15:53;;;;;;;17.73;11.48;;;3.70;99.90;;;;;;4959248;28;20035;-86
2022/11/19 02:18:39;;;;;;;19.55;10.75;;;3.70;99.90;;;;;;4965979;28;20043;-85
2022/11/19 02:21:16;;;;;;;22.00;13.77;;;3.70;99.90;;;;;;4968963;28;20031;-86
2022/11/19 02:24:00;;;;;;;21.42;13.00;;;3.50;99.90;;;;;;4947219;28;20497;-85
2022/11/19 02:26:37;;;;;;;23.73;13.50;;;3.60;99.90;;;;;;4961291;28;20026;-85
2022/11/19 02:29:30;;;;;;;22.92;14.32;;;3.50;99.90;;;;;;4961482;28;20030;-85
2022/11/19 02:32:18;;;;;;;24.13;14.60;;;3.60;99.90;;;;;;4962113;28;20578;-87
2022/11/19 02:35:10;;;;;;;22.75;14.75;;;3.50;99.90;;;;;;4945523;28;20031;-85
2022/11/19 02:37:53;;;;;;;23.23;15.43;;;3.50;99.90;;;;;;4932112;28;20043;-84
2022/11/19 02:40:29;;;;;;;26.45;16.52;;;3.50;99.90;;;;;;4962650;28;20130;-85
2022/11/19 02:43:15;;;;;;;28.33;15.40;;;3.30;99.90;;;;;;4962034;28;20533;-84
2022/11/19 02:45:48;;;;;;;28.48;18.25;;;3.30;99.90;;;;;;4933546;28;20119;-82
2022/11/19 02:48:17;;;;;;;28.67;17.95;;;3.40;99.90;;;;;;4949457;28;20080;-85
2022/11/19 02:50:48;;;;;;;25.63;16.73;;;3.20;99.90;;;;;;4945222;28;20443;-85
2022/11/19 02:53:13;;;;;;;26.55;17.92;;;3.30;99.90;;;;;;4954690;28;20121;-83
2022/11/19 02:55:39;;;;;;;27.80;17.27;;;3.20;99.90;;;;;;4948300;28;20122;-84
2022/11/19 03:04:28;;;;;;;28.35;20.30;;;3.20;99.90;;;;;;4951101;28;20054;-84
2022/11/19 03:06:45;;;;;;;30.90;18.33;;;3.10;99.90;;;;;;4949065;28;20041;-85
2022/11/19 03:09:11;;;;;;;32.50;18.48;;;3.10;99.90;;;;;;4954686;28;20039;-85
2022/11/19 03:11:36;;;;;;;25.88;16.88;;;3.10;99.90;;;;;;4949758;28;20463;-83
2022/11/19 03:17:01;;;;;;;27.85;22.02;;;3.20;99.90;;;;;;4964385;28;20077;-86
2022/11/19 03:19:42;;;;;;;30.77;18.63;;;3.00;99.90;;;;;;4940577;28;20027;-85
2022/11/19 03:22:26;;;;;;;26.10;16.45;;;3.10;99.90;;;;;;4960811;28;20110;-85
2022/11/19 03:25:01;;;;;;;28.80;20.00;;;3.10;99.90;;;;;;4968283;28;20027;-85
2022/11/19 03:27:34;;;;;;;22.58;13.65;;;3.00;99.90;;;;;;4986544;28;20026;-85
2022/11/19 03:30:00;;;;;;;28.35;17.98;;;3.10;99.90;;;;;;4946196;28;20051;-85
2022/11/19 03:32:31;;;;;;;24.95;15.65;;;3.00;99.90;;;;;;4964783;28;20053;-84
2022/11/19 03:34:59;;;;;;;26.50;20.77;;;3.10;99.90;;;;;;4951264;28;20477;-85
2022/11/19 03:37:24;;;;;;;25.33;16.67;;;3.10;99.90;;;;;;4939914;28;20038;-85
2022/11/19 03:39:50;;;;;;;23.25;16.75;;;3.10;99.90;;;;;;4949679;28;20720;-84
2022/11/19 03:42:15;;;;;;;26.13;17.27;;;3.00;99.90;;;;;;4955765;28;20394;-80
2022/11/19 03:44:47;;;;;;;27.15;16.75;;;3.00;99.90;;;;;;4950313;28;20386;-79
2022/11/19 03:47:18;;;;;;;27.92;17.90;;;3.00;99.90;;;;;;4953260;28;20058;-79
2022/11/19 03:49:45;;;;;;;29.40;18.88;;;2.90;99.90;;;;;;4922740;28;20035;-79
2022/11/19 03:52:15;;;;;;;31.85;18.38;;;2.90;99.90;;;;;;4966324;28;20544;-79
2022/11/19 03:54:40;;;;;;;30.33;18.42;;;2.90;99.90;;;;;;4953265;28;20042;-80
2022/11/19 03:57:06;;;;;;;28.10;18.63;;;2.90;99.90;;;;;;4947527;28;20394;-79
2022/11/19 03:59:33;;;;;;;31.95;20.35;;;3.00;99.90;;;;;;4967257;28;20031;-79
2022/11/19 04:02:01;;;;;;;33.25;19.77;;;2.90;99.90;;;;;;4960224;28;20043;-79
2022/11/19 04:04:36;;;;;;;28.90;19.25;;;2.90;99.90;;;;;;4931269;28;20031;-79
2022/11/19 04:07:10;;;;;;;28.45;18.35;;;2.90;99.90;;;;;;4965925;28;20035;-79
2022/11/19 04:09:36;;;;;;;31.75;22.08;;;2.90;99.90;;;;;;4949345;28;20036;-79
2022/11/19 04:12:01;;;;;;;28.95;19.30;;;2.90;99.90;;;;;;4956190;28;20039;-79
2022/11/19 04:14:27;;;;;;;29.90;18.95;;;2.80;99.90;;;;;;4963901;28;20051;-79
2022/11/19 04:16:53;;;;;;;27.90;19.55;;;2.80;99.90;;;;;;4959874;28;20035;-79
2022/11/19 04:19:18;;;;;;;29.65;19.08;;;2.80;99.90;;;;;;4934319;28;20467;-79
2022/11/19 04:21:44;;;;;;;33.10;18.95;;;2.80;99.90;;;;;;4931611;28;20024;-78
2022/11/19 04:24:09;;;;;;;26.58;17.88;;;2.80;99.90;;;;;;4956582;28;20024;-78
2022/11/19 04:26:35;;;;;;;31.05;19.95;;;2.80;99.90;;;;;;4965425;28;20037;-78
2022/11/19 04:29:01;;;;;;;30.13;18.38;;;2.80;99.90;;;;;;4948270;28;20390;-79
2022/11/19 04:31:26;;;;;;;27.75;19.38;;;2.80;99.90;;;;;;4929426;28;20037;-79
2022/11/19 04:33:52;;;;;;;30.65;21.30;;;2.80;99.90;;;;;;4951864;28;20031;-79
2022/11/19 04:36:17;;;;;;;29.17;19.90;;;2.70;99.90;;;;;;4945733;28;20756;-78
2022/11/19 04:38:43;;;;;;;35.20;20.40;;;2.80;99.90;;;;;;4984366;28;20684;-80
2022/11/19 04:41:08;;;;;;;27.63;17.65;;;2.80;99.90;;;;;;4948451;28;20031;-78
2022/11/19 04:43:34;;;;;;;35.50;21.27;;;2.80;99.90;;;;;;4960496;28;20031;-78
2022/11/19 04:46:00;;;;;;;36.20;22.17;;;2.80;99.90;;;;;;4941979;28;20046;-78
2022/11/19 04:48:25;;;;;;;30.52;20.17;;;2.70;99.90;;;;;;4948896;28;20034;-80
2022/11/19 04:50:52;;;;;;;32.83;21.35;;;2.70;99.90;;;;;;4949183;28;20027;-78
2022/11/19 04:53:17;;;;;;;34.90;19.27;;;2.70;99.90;;;;;;4949870;28;20031;-79
2022/11/19 04:55:43;;;;;;;32.20;22.00;;;2.70;99.90;;;;;;4962206;28;20081;-79
2022/11/19 04:58:09;;;;;;;34.60;23.80;;;2.60;99.90;;;;;;4945724;28;20039;-79
2022/11/19 05:00:34;;;;;;;31.13;21.90;;;2.60;99.90;;;;;;4949839;28;20402;-79
2022/11/19 05:03:00;;;;;;;33.63;20.70;;;2.60;99.90;;;;;;4979406;28;20039;-79
2022/11/19 05:05:25;;;;;;;31.30;19.65;;;2.60;99.90;;;;;;4931999;28;20035;-79
2022/11/19 05:07:51;;;;;;;32.58;19.70;;;2.60;99.90;;;;;;4928184;28;20487;-79
2022/11/19 05:10:16;;;;;;;34.00;21.58;;;2.60;99.90;;;;;;4948515;28;20493;-80
2022/11/19 05:12:42;;;;;;;32.13;22.42;;;2.60;99.90;;;;;;4915372;28;20037;-79
2022/11/19 05:15:08;;;;;;;34.00;20.45;;;2.60;99.90;;;;;;4948545;28;20022;-79
2022/11/19 05:17:33;;;;;;;31.48;20.83;;;2.50;99.90;;;;;;4942296;28;20093;-79
2022/11/19 05:19:59;;;;;;;28.67;17.77;;;2.50;99.90;;;;;;4947017;28;20031;-79
2022/11/19 05:22:25;;;;;;;33.08;20.20;;;2.60;99.90;;;;;;4932184;28;20039;-79
2022/11/19 05:24:50;;;;;;;32.42;20.88;;;2.60;99.90;;;;;;4942616;28;20030;-79
2022/11/19 05:27:16;;;;;;;33.75;20.48;;;2.60;99.90;;;;;;4934663;28;20027;-79
2022/11/19 05:29:41;;;;;;;32.42;20.25;;;2.60;99.90;;;;;;4935811;28;20054;-79
2022/11/19 05:32:07;;;;;;;31.42;20.58;;;2.60;99.90;;;;;;4979004;28;20066;-79
2022/11/19 05:34:33;;;;;;;35.22;19.77;;;2.50;99.90;;;;;;4943989;28;20079;-79
2022/11/19 05:36:59;;;;;;;32.00;19.83;;;2.50;99.90;;;;;;4962243;28;20047;-79
2022/11/19 05:39:24;;;;;;;29.60;18.50;;;2.60;99.90;;;;;;4952267;28;20336;-79
2022/11/19 05:41:50;;;;;;;35.28;19.88;;;2.60;99.90;;;;;;4982564;28;20082;-79
2022/11/19 05:44:16;;;;;;;32.38;18.67;;;2.50;99.90;;;;;;4948890;28;20126;-79
2022/11/19 05:46:41;;;;;;;33.35;21.02;;;2.60;99.90;;;;;;4967067;28;20035;-79
2022/11/19 05:49:07;;;;;;;32.60;19.65;;;2.50;99.90;;;;;;4962817;28;20137;-79
2022/11/19 05:51:32;;;;;;;36.65;24.77;;;2.40;99.90;;;;;;4939699;28;20041;-79
2022/11/19 05:53:58;;;;;;;34.22;19.40;;;2.40;99.90;;;;;;4964892;28;20027;-79
2022/11/19 05:56:23;;;;;;;29.85;18.35;;;2.40;99.90;;;;;;4928384;28;20057;-79
2022/11/19 05:58:49;;;;;;;35.80;23.50;;;2.40;99.90;;;;;;4948688;28;20035;-79
2022/11/19 06:01:15;;;;;;;37.22;22.02;;;2.40;99.90;;;;;;4944274;28;20039;-79
2022/11/19 06:03:40;;;;;;;38.42;22.08;;;2.30;99.90;;;;;;4963564;28;20054;-79
2022/11/19 06:06:06;;;;;;;36.75;21.20;;;2.40;99.90;;;;;;4981024;28;20572;-79
2022/11/19 06:08:32;;;;;;;36.38;21.55;;;2.40;99.90;;;;;;4934473;28;20039;-79
2022/11/19 06:10:57;;;;;;;37.28;22.02;;;2.40;99.90;;;;;;4962366;28;20032;-79
2022/11/19 06:13:23;;;;;;;39.03;22.77;;;2.40;99.90;;;;;;4932616;28;20078;-79
2022/11/19 06:15:48;;;;;;;41.78;24.92;;;2.30;99.90;;;;;;4949414;28;20057;-79
2022/11/19 06:18:14;;;;;;;41.05;24.15;;;2.20;99.90;;;;;;4967537;28;20519;-79
2022/11/19 06:20:39;;;;;;;38.30;22.85;;;2.20;99.90;;;;;;4952639;28;20038;-79
2022/11/19 06:23:05;;;;;;;38.50;21.70;;;2.20;99.90;;;;;;4945673;28;20034;-78
2022/11/19 06:25:30;;;;;;;39.55;25.17;;;2.30;99.90;;;;;;4967761;28;20035;-79
2022/11/19 06:27:56;;;;;;;36.63;21.65;;;2.20;99.90;;;;;;4960302;28;20027;-79
2022/11/19 06:30:21;;;;;;;39.88;22.48;;;2.20;99.90;;;;;;4933642;28;20054;-79
2022/11/19 06:32:48;;;;;;;40.35;23.45;;;2.20;99.90;;;;;;4936175;28;20371;-79
2022/11/19 06:35:13;;;;;;;39.97;21.58;;;2.10;99.90;;;;;;4944519;28;20023;-79
2022/11/19 06:37:39;;;;;;;46.03;24.80;;;2.10;99.90;;;;;;4981295;28;20557;-79
2022/11/19 06:40:05;;;;;;;40.60;22.67;;;2.10;99.90;;;;;;4950958;28;20105;-79
2022/11/19 06:42:37;;;;;;;42.42;24.67;;;2.00;99.90;;;;;;4954799;28;20479;-79
2022/11/19 06:45:10;;;;;;;42.65;23.90;;;2.00;99.90;;;;;;4984399;28;20375;-79
2022/11/19 06:47:36;;;;;;;38.85;24.55;;;2.00;99.90;;;;;;4952283;28;20041;-79
2022/11/19 06:50:02;;;;;;;41.03;21.30;;;2.00;99.90;;;;;;4951921;28;20043;-79
2022/11/19 06:52:27;;;;;;;39.40;21.73;;;2.10;99.90;;;;;;4951170;28;20092;-79
2022/11/19 06:54:53;;;;;;;40.88;22.55;;;2.10;99.90;;;;;;4975445;28;20035;-79
2022/11/19 06:57:19;;;;;;;38.15;21.50;;;2.10;99.90;;;;;;4938463;28;20030;-79
2022/11/19 06:59:44;;;;;;;35.42;20.98;;;2.10;99.90;;;;;;4954801;28;20621;-79
2022/11/19 07:02:10;;;;;;;38.88;22.33;;;2.10;99.90;;;;;;4954195;28;20098;-80
2022/11/19 07:04:36;;;;;;;35.05;21.63;;;2.10;99.90;;;;;;4972002;28;20476;-79
2022/11/19 07:07:02;;;;;;;37.13;20.98;;;2.10;99.90;;;;;;4964431;28;20118;-79
2022/11/19 07:09:27;;;;;;;38.28;19.95;;;2.10;99.90;;;;;;4950037;28;20062;-79
2022/11/19 07:11:53;;;;;;;32.83;22.75;;;2.00;99.90;;;;;;4953861;28;20047;-79
2022/11/19 07:14:19;;;;;;;37.72;23.08;;;2.00;99.90;;;;;;4931814;28;20026;-79
2022/11/19 07:16:44;;;;;;;31.02;21.65;;;1.90;99.90;;;;;;4965482;28;20442;-79
2022/11/19 07:19:10;;;;;;;32.63;19.88;;;1.90;99.90;;;;;;4948608;28;20031;-79
2022/11/19 07:21:35;;;;;;;32.92;17.98;;;1.90;99.90;;;;;;4934960;28;20435;-79
2022/11/19 07:24:02;;;;;;;31.45;19.13;;;1.90;99.90;;;;;;4925584;28;20059;-79
2022/11/19 07:26:29;;;;;;;32.83;19.55;;;2.00;99.90;;;;;;4941904;28;20119;-78
2022/11/19 07:28:55;;;;;;;30.85;19.77;;;2.00;99.90;;;;;;4960266;28;20106;-79
2022/11/19 07:31:20;;;;;;;31.75;21.75;;;2.00;99.90;;;;;;4971823;28;20113;-79
2022/11/19 07:33:46;;;;;;;35.60;20.10;;;1.90;99.90;;;;;;4966819;28;20114;-78
2022/11/19 07:36:12;;;;;;;30.38;17.75;;;2.00;99.90;;;;;;4965655;28;20113;-79
2022/11/19 07:38:37;;;;;;;33.13;20.05;;;2.00;99.90;;;;;;4936428;28;20027;-79
2022/11/19 07:42:48;;;;;;;32.88;19.38;;;2.00;99.90;;;;;;4953398;28;20035;-78
2022/11/19 07:43:49;;;;;;;35.72;20.88;;;2.00;99.90;;;;;;4937804;28;20133;-79
2022/11/19 07:46:14;;;;;;;33.75;19.05;;;2.10;99.90;;;;;;4976430;28;20074;-79
2022/11/19 07:48:40;;;;;;;31.83;18.23;;;2.10;99.90;;;;;;4966158;28;20033;-79
2022/11/19 07:51:11;;;;;;;28.73;18.45;;;2.00;99.90;;;;;;4956156;28;20117;-79
2022/11/19 07:53:37;;;;;;;35.00;19.63;;;2.10;99.90;;;;;;4966458;28;20042;-79
2022/11/19 07:56:03;;;;;;;34.00;19.52;;;2.10;99.90;;;;;;4969576;28;20035;-79
2022/11/19 07:58:28;;;;;;;33.95;18.90;;;2.10;99.90;;;;;;4940708;28;20430;-79
2022/11/19 08:00:54;;;;;;;30.15;16.90;;;2.20;99.90;;;;;;4954920;28;20042;-79
2022/11/19 08:03:19;;;;;;;32.90;19.08;;;2.20;99.90;;;;;;4937461;28;20027;-79
2022/11/19 08:05:45;;;;;;;31.77;19.65;;;2.20;99.90;;;;;;4956862;28;20042;-79
2022/11/19 08:08:11;;;;;;;32.55;18.45;;;2.20;99.90;;;;;;4962508;28;20118;-81
2022/11/19 08:10:36;;;;;;;31.63;17.48;;;2.20;99.90;;;;;;4960135;28;20134;-79
2022/11/19 08:13:02;;;;;;;29.92;17.85;;;2.20;99.90;;;;;;4943352;28;20131;-79
2022/11/19 08:15:31;;;;;;;30.40;17.55;;;2.20;99.90;;;;;;4943541;28;20110;-80
2022/11/19 08:18:12;;;;;;;29.55;18.13;;;2.10;99.90;;;;;;4954307;28;20041;-80
2022/11/19 08:20:42;;;;;;;30.42;17.73;;;2.20;99.90;;;;;;4937892;28;20031;-80
2022/11/19 08:23:08;;;;;;;29.08;17.92;;;2.20;99.90;;;;;;4976871;28;20046;-79
2022/11/19 08:25:34;;;;;;;31.50;18.90;;;2.20;99.90;;;;;;4951353;28;20478;-80
2022/11/19 08:28:00;;;;;;;29.00;19.55;;;2.30;99.90;;;;;;4952950;28;20023;-79
2022/11/19 08:30:26;;;;;;;30.60;18.23;;;2.20;99.90;;;;;;4948332;28;20039;-80
2022/11/19 08:32:51;;;;;;;29.13;16.48;;;2.30;99.90;;;;;;4959337;28;20502;-80
2022/11/19 08:35:17;;;;;;;27.42;16.45;;;2.20;99.90;;;;;;4965984;28;20121;-80
2022/11/19 08:37:42;;;;;;;29.52;18.55;;;2.20;99.90;;;;;;4953512;28;20477;-81
2022/11/19 08:40:08;;;;;;;29.75;17.13;;;2.20;99.90;;;;;;4965797;28;20426;-79
2022/11/19 08:45:18;;;;;;;27.17;17.63;;;2.30;99.90;;;;;;4953410;28;20122;-79
2022/11/19 08:47:44;;;;;;;26.73;16.02;;;2.30;99.90;;;;;;4968517;28;20113;-79
2022/11/19 08:50:11;;;;;;;29.42;18.38;;;2.30;99.90;;;;;;4962887;28;20039;-80
2022/11/19 08:52:37;;;;;;;29.00;16.88;;;2.30;99.90;;;;;;4967853;28;20043;-79
2022/11/19 08:55:02;;;;;;;27.27;18.20;;;2.30;99.90;;;;;;4961900;28;20034;-80
2022/11/19 08:57:29;;;;;;;26.80;17.17;;;2.30;99.90;;;;;;4952771;28;20034;-82
2022/11/19 08:59:55;;;;;;;26.38;17.60;;;2.20;99.90;;;;;;4962937;28;20720;-84
2022/11/19 09:02:20;;;;;;;29.35;18.38;;;2.20;99.90;;;;;;4951263;28;20027;-84
2022/11/19 09:04:46;;;;;;;27.63;16.15;;;2.10;99.90;;;;;;4966776;28;20070;-82
2022/11/19 09:07:11;;;;;;;25.95;16.60;;;2.20;99.90;;;;;;4964664;28;20027;-83
2022/11/19 09:09:37;;;;;;;28.27;17.65;;;2.20;99.90;;;;;;4955538;28;20112;-82
2022/11/19 09:12:03;;;;;;;24.25;15.32;;;2.20;99.90;;;;;;4967123;28;20429;-83
2022/11/19 09:14:28;;;;;;;27.20;16.98;;;2.20;99.90;;;;;;4941994;28;20517;-83
2022/11/19 09:16:54;;;;;;;25.30;14.30;;;2.20;99.90;;;;;;4944211;28;20039;-84
2022/11/19 09:19:19;;;;;;;25.08;15.95;;;2.20;99.90;;;;;;4947294;28;20025;-84
2022/11/19 09:21:45;;;;;;;23.45;15.30;;;2.20;99.90;;;;;;4947675;28;20125;-83
2022/11/19 09:24:10;;;;;;;22.13;15.30;;;2.20;99.90;;;;;;4944293;28;20105;-83
2022/11/19 09:26:36;;;;;;;28.13;15.07;;;2.20;99.90;;;;;;4952155;28;20378;-84
2022/11/19 09:29:04;;;;;;;22.10;14.27;;;2.20;99.90;;;;;;4953136;28;20607;-84
2022/11/19 09:31:29;;;;;;;21.33;15.13;;;2.20;99.90;;;;;;4930290;28;20406;-84
2022/11/19 09:33:55;;;;;;;22.20;13.60;;;2.20;99.90;;;;;;4949917;28;20286;-83
2022/11/19 09:36:21;;;;;;;22.48;14.15;;;2.20;99.90;;;;;;4956279;28;20019;-83
2022/11/19 09:39:02;;;;;;;22.73;15.38;;;2.30;99.90;;;;;;4951544;28;20036;-84
2022/11/19 09:41:38;;;;;;;23.20;13.00;;;2.30;99.90;;;;;;4965834;28;20042;-83
2022/11/19 09:44:42;;;;;;;23.52;15.23;;;2.30;99.90;;;;;;4964525;28;20100;-82
2022/11/19 09:47:27;;;;;;;21.08;13.68;;;2.30;99.90;;;;;;4962488;28;20059;-82
2022/11/19 09:50:17;;;;;;;20.80;14.02;;;2.20;99.90;;;;;;4976187;28;20066;-83
2022/11/19 09:52:55;;;;;;;20.92;13.63;;;2.20;99.90;;;;;;4948115;28;20506;-84
2022/11/19 09:55:33;;;;;;;21.80;14.50;;;2.20;99.90;;;;;;4979085;28;20576;-83
2022/11/19 09:57:59;;;;;;;21.15;12.55;;;2.20;99.90;;;;;;4953297;28;20799;-84
2022/11/19 10:00:27;;;;;;;22.63;14.65;;;2.20;99.90;;;;;;4961949;28;20038;-83
2022/11/19 10:02:53;;;;;;;24.13;14.18;;;2.10;99.90;;;;;;4960855;28;20046;-83
2022/11/19 10:05:42;;;;;;;22.02;14.07;;;2.10;99.90;;;;;;4932638;28;20035;-84
2022/11/19 10:08:24;;;;;;;20.35;15.27;;;2.10;99.90;;;;;;4914213;28;20042;-84
2022/11/19 10:11:16;;;;;;;21.05;14.88;;;2.10;99.90;;;;;;4936520;28;20042;-85
2022/11/19 10:14:11;;;;;;;20.95;14.57;;;2.10;99.90;;;;;;4957743;28;20038;-84
2022/11/19 10:16:40;;;;;;;20.90;12.10;;;2.00;99.90;;;;;;4989913;28;20549;-84
2022/11/19 10:19:08;;;;;;;20.75;13.52;;;2.10;99.90;;;;;;4956141;28;20034;-84
2022/11/19 10:22:05;;;;;;;24.10;14.25;;;2.10;99.90;;;;;;4976718;28;20034;-84
2022/11/19 10:24:48;;;;;;;23.40;13.75;;;2.10;99.90;;;;;;4938230;28;20098;-84
2022/11/19 10:27:47;;;;;;;23.88;14.77;;;2.00;99.90;;;;;;4961497;28;20082;-84
2022/11/19 10:30:19;;;;;;;21.90;13.68;;;2.00;99.90;;;;;;4942905;28;20053;-85
2022/11/19 10:33:14;;;;;;;24.05;15.32;;;1.90;99.90;;;;;;4923431;28;20045;-84
2022/11/19 10:35:41;;;;;;;21.63;14.55;;;1.90;99.90;;;;;;4974965;28;20123;-85
2022/11/19 10:38:17;;;;;;;20.77;13.70;;;1.80;99.90;;;;;;4954257;28;20118;-85
2022/11/19 10:40:45;;;;;;;21.58;14.85;;;1.80;99.90;;;;;;4988131;28;20035;-85
2022/11/19 10:43:20;;;;;;;20.08;13.23;;;1.80;99.90;;;;;;4950511;28;20030;-84
2022/11/19 10:46:01;;;;;;;23.20;15.63;;;1.80;99.90;;;;;;4981447;28;20498;-84
2022/11/19 10:48:43;;;;;;;23.20;15.45;;;1.90;99.90;;;;;;4936130;28;20031;-84
2022/11/19 10:51:22;;;;;;;21.95;14.05;;;2.00;99.90;;;;;;4941860;28;20089;-85
2022/11/19 10:53:48;;;;;;;21.88;15.18;;;2.10;99.90;;;;;;4953143;28;20031;-86
2022/11/19 10:56:18;;;;;;;20.85;14.32;;;2.10;99.90;;;;;;4972592;28;20038;-82
2022/11/19 10:58:52;;;;;;;20.33;12.90;;;2.10;99.90;;;;;;4965383;28;20027;-83
2022/11/19 11:01:27;;;;;;;19.75;13.75;;;2.30;99.90;;;;;;4941540;28;20396;-83
2022/11/19 11:04:12;;;;;;;20.13;12.83;;;2.40;99.90;;;;;;4952738;28;20039;-83
2022/11/19 11:06:54;;;;;;;21.20;13.07;;;2.40;99.90;;;;;;4969034;28;20090;-83
2022/11/19 11:09:32;;;;;;;21.40;12.13;;;2.40;99.90;;;;;;4934206;28;20060;-83
2022/11/19 11:14:53;;;;;;;21.33;12.93;;;2.50;99.90;;;;;;4950824;28;20501;-83
2022/11/19 11:17:21;;;;;;;18.52;13.15;;;2.60;99.90;;;;;;4970295;28;20490;-83
2022/11/19 11:20:19;;;;;;;16.98;11.70;;;2.60;99.90;;;;;;4945946;28;20039;-83
2022/11/19 11:22:45;;;;;;;20.20;13.20;;;2.60;99.90;;;;;;4930727;28;20035;-84
2022/11/19 11:25:25;;;;;;;18.70;12.00;;;2.60;99.90;;;;;;4950544;28;20490;-83
2022/11/19 11:28:16;;;;;;;19.13;12.45;;;2.70;99.90;;;;;;4960938;28;20033;-83
2022/11/19 11:31:11;;;;;;;20.20;12.80;;;2.70;99.90;;;;;;4949106;28;20035;-83
2022/11/19 11:33:54;;;;;;;18.45;13.07;;;2.90;99.90;;;;;;4945083;28;20505;-84
2022/11/19 11:36:21;;;;;;;16.80;11.98;;;2.90;99.90;;;;;;4951249;28;20031;-83
2022/11/19 11:38:47;;;;;;;22.83;12.98;;;3.00;99.90;;;;;;4970438;28;20089;-83
2022/11/19 11:41:20;;;;;;;20.13;11.60;;;3.10;99.90;;;;;;4965701;28;20053;-83
2022/11/19 11:44:00;;;;;;;19.42;12.32;;;3.30;99.90;;;;;;4938287;28;20031;-83
2022/11/19 11:46:42;;;;;;;18.27;12.75;;;3.40;99.90;;;;;;4964593;28;20031;-83
2022/11/19 11:49:18;;;;;;;16.02;11.10;;;3.60;99.90;;;;;;4983120;28;20085;-83
2022/11/19 11:51:43;;;;;;;15.95;11.32;;;3.70;99.90;;;;;;4959866;28;20425;-83
2022/11/19 11:54:19;;;;;;;18.42;10.90;;;3.80;99.90;;;;;;4946784;28;20027;-83
2022/11/19 11:56:47;;;;;;;;;;;3.80;99.90;;;;;;4968879;28;20157;-83
2022/11/19 11:59:29;;;;;;;17.20;11.08;;;3.90;99.90;;;;;;4592753;28;10000629;-83
2022/11/19 12:02:01;;;;;;;17.40;10.23;;;4.10;99.90;;;;;;4602093;28;10001423;-83
2022/11/19 12:04:27;;;;;;;13.80;9.85;;;4.10;99.90;;;;;;4963376;28;20536;-83
2022/11/19 12:07:04;;;;;;;15.10;10.13;;;4.20;99.90;;;;;;4950784;28;20043;-83
2022/11/19 12:09:37;;;;;;;14.20;10.55;;;4.30;99.90;;;;;;4952904;28;20047;-83
2022/11/19 12:12:07;;;;;;;14.13;10.10;;;4.40;99.90;;;;;;4966303;28;20043;-83
2022/11/19 12:14:49;;;;;;;18.33;11.18;;;4.40;99.90;;;;;;4936744;28;20030;-83
2022/11/19 12:17:24;;;;;;;15.43;10.95;;;4.50;99.90;;;;;;4949499;28;20039;-83
2022/11/19 12:20:21;;;;;;;16.95;10.32;;;4.60;99.90;;;;;;4962496;28;20042;-83
2022/11/19 12:23:06;;;;;;;16.60;10.55;;;4.60;99.90;;;;;;4964806;28;20524;-83
2022/11/19 12:26:00;;;;;;;12.88;8.48;;;4.70;99.90;;;;;;4973310;28;20045;-83
2022/11/19 12:28:39;;;;;;;14.73;10.32;;;4.70;99.90;;;;;;4942494;28;20145;-83
2022/11/19 12:31:17;;;;;;;15.90;9.98;;;4.80;99.90;;;;;;4962664;28;20451;-83
2022/11/19 12:34:12;;;;;;;15.07;10.93;;;4.90;99.90;;;;;;4941978;28;20028;-83
2022/11/19 12:37:06;;;;;;;14.77;10.32;;;4.90;99.90;;;;;;4938276;28;20483;-83
2022/11/19 12:39:50;;;;;;;15.95;10.90;;;4.90;99.90;;;;;;4908675;28;20035;-83
2022/11/19 12:42:40;;;;;;;24.15;12.00;;;4.90;99.90;;;;;;4964167;28;20035;-83
2022/11/19 12:45:22;;;;;;;19.10;10.98;;;4.90;99.90;;;;;;4980631;28;20394;-83
2022/11/19 12:48:07;;;;;;;16.05;11.15;;;4.90;99.90;;;;;;4948137;28;20038;-84
2022/11/19 12:51:11;;;;;;;15.10;10.60;;;4.90;99.90;;;;;;4964464;28;20042;-82
2022/11/19 12:53:40;;;;;;;14.30;9.98;;;4.90;99.90;;;;;;4932082;28;20053;-84
2022/11/19 12:56:22;;;;;;;13.75;10.18;;;4.90;99.90;;;;;;4965002;28;20038;-83
2022/11/19 12:59:13;;;;;;;14.10;9.68;;;5.00;99.90;;;;;;4969322;28;20042;-84
2022/11/19 13:01:41;;;;;;;18.10;10.60;;;5.00;99.90;;;;;;4973898;28;20027;-84
2022/11/19 13:04:22;;;;;;;18.52;10.85;;;5.00;99.90;;;;;;4963472;28;20094;-84
2022/11/19 13:07:05;;;;;;;15.75;10.50;;;5.00;99.90;;;;;;4949228;28;20039;-84
2022/11/19 13:09:43;;;;;;;15.13;12.23;;;5.00;99.90;;;;;;4978267;28;20082;-84
2022/11/19 13:12:11;;;;;;;14.60;11.43;;;5.00;99.90;;;;;;4962663;28;20028;-83